Zenda, KS

5:39 AM CDT on October 01, 2014 (GMT -0500)
Weed Dept | Change Station
CLOSE
Current Station
Personal Weather Station
Location: Anthony, KS
Elevation: 1352 ft
Nearby Weather Stations
4.1 Earthquake: Perry, Oklahoma (1 day ago)  

Elev 1352 ft 37.15 °N, 98.06 °W | Updated 12 minutes ago

Partly Cloudy
Partly Cloudy
67.3 °F
Feels Like 67.3 °F
N
4.7
Wind Variable Wind from ESE

Today
High -- | Low -- °F
--% Chance of Precip.
Yesterday
High -- | Low -- °F
Precip. -- in
7:28 AM 7:16 PM
Waxing Crescent, 46% visible
Pressure 29.89 in
Visibility 10.0 miles
Clouds Clear
Dew Point 65 °F
Humidity 92%
Rainfall 0.00 in
Snow Depth Not available.
UV 0 out of 12
Pollen 4.50 out of 12
Air Quality Not available.
Flu Activity Not available.
METAR KPTT 300755Z AUTO 16015G20KT 10SM CLR 19/12 A2989 RMK AO2

More Conditions Fewer Conditions

Pressure 29.89 in
Visibility 10.0 miles
Clouds Clear
Dew Point 65 °F
Humidity 92%
Rainfall 0.00 in
Snow Depth Not available.
UV 0 out of 12
Pollen 4.50 out of 12
Air Quality Not available.
Flu Activity Not available.
METAR KPTT 300755Z AUTO 16015G20KT 10SM CLR 19/12 A2989 RMK AO2

More Conditions Fewer Conditions

10-Day Weather Forecast

Almanac

Astronomy

Oct. 01, 2014 Rise Set
Actual Time 7:28 AM CDT 7:16 PM CDT
Civil Twilight 7:02 AM CDT 7:42 PM CDT
Nautical Twilight 6:32 AM CDT 8:12 PM CDT
Astronomical Twilight 6:01 AM CDT 8:43 PM CDT
Moon 2:25 PM CDT No Moon Set
Length of Visible Light 12h 39m
Length of Day
11h 47m
Tomorrow will be 2m 23s shorter.
Waxing Crescent, 46% of the Moon is Illuminated
Today
Waxing Crescent
Oct 1
First Quarter
Oct 8
Full
Oct 15
Last Quarter
Oct 23
New

Today's Extremes

State Highs State Lows

Community

WunderPhotos

Upload Photos

1,757,905 photos uploaded!

WunderBlogs® & News

Nearby

Snow Depth

Station Depth Elevation
No new snow has been reported.

Earthquake Activity

City Distance Mag. Time & Date
Harper, Kansas 26 miles 3.3 1:11 AM CDT
2014-10-01
Medford, Oklahoma 46 miles 2.5 10:49 PM CDT
2014-09-30
Medford, Oklahoma 46 miles 2.8 8:30 PM CDT
2014-09-30
Spencer, Oklahoma 136 miles 3.0 5:12 PM CDT
2014-09-30
Minimum magnitude displayed is 2.5.

Coastal Water Temperatures

Place Temperature
No Stations Reporting

Nearby Weather Stations